Time;durP1;ratioP1;P1;durP2;ratioP2;P2;SDS_P1;SDS_P2;PMS_P1;PMS_P2;Temp;Humidity;BMP_temperature;BMP_pressure;BME280_temperature;BME280_humidity;BME280_pressure;Samples;Min_cycle;Max_cycle;Signal;HPM_P1;HPM_P2
2023/03/03 00:00:08;;;;;;;59.17;28.65;;;;;;;-3.66;100.00;93003.72;2559051;23;20001;-89
2023/03/03 00:01:09;;;;;;;57.35;28.42;;;;;;;-3.65;100.00;93007.09;2559476;23;20012;-88
2023/03/03 00:02:10;;;;;;;62.40;29.48;;;;;;;-3.68;100.00;93003.31;2570937;22;20028;-87
2023/03/03 00:03:38;;;;;;;58.88;29.45;;;;;;;-3.69;100.00;93004.38;2583433;23;20050;-84
2023/03/03 00:04:39;;;;;;;57.97;28.33;;;;;;;-3.59;100.00;93009.16;2576538;23;20036;-88
2023/03/03 00:05:41;;;;;;;59.33;28.13;;;;;;;-3.34;100.00;93006.47;2571025;22;20009;-87
2023/03/03 00:06:44;;;;;;;58.05;27.52;;;;;;;-3.41;100.00;93003.69;2571304;23;20004;-85
2023/03/03 00:07:46;;;;;;;66.18;30.33;;;;;;;-3.45;100.00;93008.03;2559504;23;20084;-86
2023/03/03 00:08:47;;;;;;;64.10;29.05;;;;;;;-3.61;100.00;92998.25;2571106;23;20051;-88
2023/03/03 00:09:53;;;;;;;54.15;27.35;;;;;;;-3.62;100.00;93001.97;2571481;23;20031;-88
2023/03/03 00:10:54;;;;;;;59.70;27.65;;;;;;;-3.65;100.00;93004.47;2572167;22;20592;-85
2023/03/03 00:12:17;;;;;;;59.22;29.10;;;;;;;-3.65;100.00;93001.88;2571151;23;20001;-85
2023/03/03 00:13:24;;;;;;;56.63;26.90;;;;;;;-3.67;100.00;93004.81;2567180;23;20011;-85
2023/03/03 00:14:31;;;;;;;55.85;27.35;;;;;;;-3.68;100.00;93000.69;2572169;23;20483;-86
2023/03/03 00:15:32;;;;;;;54.08;28.70;;;;;;;-3.68;100.00;93005.91;2573457;22;20387;-86
2023/03/03 00:16:37;;;;;;;59.08;28.55;;;;;;;-3.72;100.00;93007.66;2583463;22;20054;-88
2023/03/03 00:17:38;;;;;;;57.13;26.35;;;;;;;-3.74;100.00;93001.22;2584714;22;20007;-87
2023/03/03 00:18:47;;;;;;;59.25;29.45;;;;;;;-3.53;100.00;93009.69;2583454;22;20000;-85
2023/03/03 00:19:48;;;;;;;53.22;26.67;;;;;;;-3.50;100.00;93003.06;2598094;22;20083;-86
2023/03/03 00:20:59;;;;;;;62.03;28.40;;;;;;;-3.61;100.00;93008.72;2583402;23;20470;-86
2023/03/03 00:22:00;;;;;;;60.63;28.83;;;;;;;-3.62;100.00;93001.22;2562233;23;20068;-85
2023/03/03 00:23:36;;;;;;;60.35;27.77;;;;;;;-3.66;100.00;93006.34;2558569;23;20000;-86
2023/03/03 00:24:52;;;;;;;59.42;26.63;;;;;;;-3.74;100.00;93007.22;2572659;23;20053;-87
2023/03/03 00:25:53;;;;;;;59.33;27.83;;;;;;;-3.71;100.00;93011.78;2564640;23;20013;-87
2023/03/03 00:26:59;;;;;;;57.22;27.63;;;;;;;-3.67;100.00;93006.66;2558553;23;20482;-87
2023/03/03 00:28:18;;;;;;;56.45;28.35;;;;;;;-3.65;100.00;93012.31;2573446;22;20028;-87
2023/03/03 00:29:41;;;;;;;55.88;27.63;;;;;;;-3.68;100.00;93003.31;2587098;22;20091;-87
2023/03/03 00:30:42;;;;;;;58.38;28.08;;;;;;;-3.66;100.00;93005.56;2583473;23;20015;-88
2023/03/03 00:31:43;;;;;;;60.13;28.20;;;;;;;-3.70;100.00;93007.31;2583314;23;20054;-88
2023/03/03 00:32:54;;;;;;;58.10;28.17;;;;;;;-3.79;100.00;93004.81;2558650;23;20589;-87
2023/03/03 00:33:58;;;;;;;53.80;27.23;;;;;;;-3.70;100.00;93004.72;2572823;23;20004;-85
2023/03/03 00:35:22;;;;;;;52.53;26.60;;;;;;;-3.64;100.00;93001.56;2559930;23;20005;-85
2023/03/03 00:36:34;;;;;;;58.92;26.73;;;;;;;-3.65;100.00;92997.41;2580619;22;20000;-86
2023/03/03 00:37:40;;;;;;;60.28;27.65;;;;;;;-3.68;100.00;93008.53;2573479;23;20013;-86
2023/03/03 00:38:42;;;;;;;57.90;27.45;;;;;;;-3.82;100.00;93006.25;2560341;23;20024;-85
2023/03/03 00:39:46;;;;;;;60.20;28.00;;;;;;;-3.80;100.00;93003.31;2571277;22;20008;-87
2023/03/03 00:40:48;;;;;;;59.35;28.13;;;;;;;-3.83;100.00;93003.97;2584166;22;20051;-86
2023/03/03 00:41:49;;;;;;;61.17;28.17;;;;;;;-3.81;100.00;93004.41;2595827;22;20102;-84
2023/03/03 00:42:53;;;;;;;55.85;28.08;;;;;;;-3.87;100.00;93005.69;2570600;23;20008;-86
2023/03/03 00:44:27;;;;;;;58.20;27.95;;;;;;;-3.86;100.00;93010.63;2574974;22;20021;-87
2023/03/03 00:45:55;;;;;;;57.28;25.92;;;;;;;-3.86;100.00;93004.63;2528447;23;20065;-88
2023/03/03 00:47:11;;;;;;;52.75;25.70;;;;;;;-3.67;100.00;93011.91;2520077;23;20005;-86
2023/03/03 00:48:24;;;;;;;57.60;26.67;;;;;;;-3.64;100.00;93006.03;2573526;22;20301;-86
2023/03/03 00:49:26;;;;;;;59.58;28.25;;;;;;;-3.71;100.00;93011.03;2585757;22;20012;-84
2023/03/03 00:50:32;;;;;;;61.25;27.58;;;;;;;-3.86;100.00;93004.63;2583575;22;20004;-86
2023/03/03 00:51:34;;;;;;;56.15;27.23;;;;;;;-3.85;100.00;93004.28;2571588;23;20012;-87
2023/03/03 00:52:44;;;;;;;59.25;28.40;;;;;;;-3.94;100.00;93003.66;2583934;22;20022;-84
2023/03/03 00:53:45;;;;;;;55.58;27.65;;;;;;;-3.89;100.00;93002.66;2582994;23;20111;-85
2023/03/03 00:54:46;;;;;;;54.80;29.02;;;;;;;-3.84;100.00;93010.28;2571267;22;20076;-85
2023/03/03 00:55:49;;;;;;;49.78;26.33;;;;;;;-3.86;100.00;93004.63;2570908;23;20004;-85
2023/03/03 00:56:50;;;;;;;57.63;26.80;;;;;;;-3.82;100.00;93006.25;2571591;22;20059;-86
2023/03/03 00:57:51;;;;;;;57.65;28.65;;;;;;;-3.85;100.00;93004.28;2571161;23;20772;-86
2023/03/03 00:58:59;;;;;;;58.83;28.95;;;;;;;-3.88;100.00;93007.56;2559189;23;20015;-85
2023/03/03 01:00:00;;;;;;;55.78;26.83;;;;;;;-3.90;100.00;93004.53;2572988;22;20099;-88
2023/03/03 01:01:04;;;;;;;62.20;27.75;;;;;;;-3.80;100.00;93008.53;2570975;23;20020;-86
2023/03/03 01:02:06;;;;;;;58.17;27.58;;;;;;;-3.85;100.00;93008.75;2559102;23;20009;-86
2023/03/03 01:03:15;;;;;;;58.10;27.60;;;;;;;-3.88;100.00;93009.41;2560009;23;20008;-86
2023/03/03 01:04:16;;;;;;;57.67;28.67;;;;;;;-3.97;100.00;93014.75;2574139;22;20429;-84
2023/03/03 01:05:18;;;;;;;57.47;27.95;;;;;;;-3.93;100.00;93020.06;2583196;23;20011;-86
2023/03/03 01:06:43;;;;;;;55.45;28.08;;;;;;;-4.00;100.00;93012.00;2558829;23;20021;-87
2023/03/03 01:07:45;;;;;;;54.50;26.10;;;;;;;-3.99;100.00;93016.94;2568803;23;20106;-88
2023/03/03 01:08:48;;;;;;;57.53;27.75;;;;;;;-3.86;100.00;93013.22;2570915;23;20012;-87
2023/03/03 01:09:49;;;;;;;54.63;26.75;;;;;;;-3.91;100.00;93020.50;2571124;23;20076;-86
2023/03/03 01:10:53;;;;;;;54.28;27.15;;;;;;;-3.98;100.00;93007.25;2558434;23;20059;-87
2023/03/03 01:12:04;;;;;;;57.22;28.20;;;;;;;-4.00;100.00;93015.38;2571986;23;20393;-88
2023/03/03 01:13:06;;;;;;;55.78;27.02;;;;;;;-4.15;100.00;93023.88;2574346;22;20009;-87
2023/03/03 01:14:07;;;;;;;52.72;25.08;;;;;;;-4.12;100.00;93016.16;2570872;23;20004;-89
2023/03/03 01:15:17;;;;;;;55.70;27.85;;;;;;;-4.13;100.00;93019.84;2558573;23;20005;-88
2023/03/03 01:16:20;;;;;;;56.35;27.60;;;;;;;-4.19;100.00;93020.38;2562628;23;20005;-88
2023/03/03 01:17:21;;;;;;;54.78;27.05;;;;;;;-4.18;100.00;93014.06;2559216;23;20032;-88
2023/03/03 01:18:25;;;;;;;53.50;26.52;;;;;;;-4.10;100.00;93005.38;2558854;23;20136;-85
2023/03/03 01:19:30;;;;;;;52.38;26.58;;;;;;;-4.13;100.00;93014.63;2571985;22;20010;-88
2023/03/03 01:20:31;;;;;;;58.47;27.63;;;;;;;-4.16;100.00;93014.53;2571539;23;20023;-87
2023/03/03 01:21:34;;;;;;;57.45;28.65;;;;;;;-4.14;100.00;93023.53;2558921;23;20043;-85
2023/03/03 01:22:41;;;;;;;52.22;26.95;;;;;;;-4.18;100.00;93012.22;2559130;23;20012;-88
2023/03/03 01:23:45;;;;;;;53.17;26.75;;;;;;;-4.21;100.00;93025.19;2560799;23;20012;-86
2023/03/03 01:24:50;;;;;;;54.17;26.67;;;;;;;-4.27;100.00;93019.41;2572117;22;20008;-87
2023/03/03 01:25:51;;;;;;;52.65;25.67;;;;;;;-4.32;100.00;93020.38;2571390;23;20081;-86
2023/03/03 01:26:54;;;;;;;52.72;26.58;;;;;;;-4.31;100.00;93016.66;2559408;23;20023;-85
2023/03/03 01:28:13;;;;;;;46.47;24.30;;;;;;;-4.29;100.00;93013.00;2559948;23;20428;-85
2023/03/03 01:29:15;;;;;;;52.55;25.60;;;;;;;-4.23;100.00;93011.69;2574017;23;20019;-86
2023/03/03 01:30:16;;;;;;;57.05;27.40;;;;;;;-4.23;100.00;93015.06;2558682;23;20009;-85
2023/03/03 01:31:17;;;;;;;62.33;27.92;;;;;;;-4.21;100.00;93012.13;2558614;23;20013;-86
2023/03/03 01:32:18;;;;;;;54.40;27.38;;;;;;;-4.24;100.00;93015.38;2558365;23;19997;-88
2023/03/03 01:33:20;;;;;;;56.47;28.63;;;;;;;-4.25;100.00;93013.88;2562618;23;20001;-85
2023/03/03 01:34:24;;;;;;;57.78;27.73;;;;;;;-4.33;100.00;93010.28;2579822;23;19984;-84
2023/03/03 01:35:25;;;;;;;53.40;27.25;;;;;;;-4.43;100.00;93016.69;2567323;23;20005;-85
2023/03/03 01:36:36;;;;;;;53.00;27.40;;;;;;;-4.38;100.00;93011.25;2567066;23;20007;-84
2023/03/03 01:37:37;;;;;;;52.03;26.55;;;;;;;-4.30;100.00;93020.06;2570586;23;20040;-85
2023/03/03 01:38:42;;;;;;;54.97;27.52;;;;;;;-4.33;100.00;93018.84;2581261;22;20001;-84
2023/03/03 01:39:48;;;;;;;55.13;27.48;;;;;;;-4.39;100.00;93012.34;2602501;22;20008;-87
2023/03/03 01:40:54;;;;;;;52.60;26.98;;;;;;;-4.36;100.00;93010.91;2583444;23;20367;-87
2023/03/03 01:41:55;;;;;;;51.60;27.33;;;;;;;-4.33;100.00;93015.50;2573403;22;20455;-86
2023/03/03 01:42:59;;;;;;;54.00;26.83;;;;;;;-4.39;100.00;93014.16;2570971;23;20008;-86
2023/03/03 01:44:00;;;;;;;51.10;25.88;;;;;;;-4.27;100.00;93013.41;2571876;22;20019;-88
2023/03/03 01:45:41;;;;;;;52.40;25.95;;;;;;;-4.32;100.00;93017.00;2596302;22;20007;-87
2023/03/03 01:46:57;;;;;;;56.28;25.38;;;;;;;-4.33;100.00;93013.63;2557531;23;20478;-86
2023/03/03 01:48:03;;;;;;;50.72;24.27;;;;;;;-4.30;100.00;93012.25;2573823;23;20012;-86
2023/03/03 01:49:16;;;;;;;51.63;24.75;;;;;;;-4.26;100.00;93013.09;2572717;22;20004;-86
2023/03/03 01:50:47;;;;;;;53.60;25.58;;;;;;;-4.37;100.00;93017.97;2573389;23;20004;-87
2023/03/03 01:52:00;;;;;;;53.60;26.23;;;;;;;-4.49;100.00;93017.19;2582507;22;20087;-86
2023/03/03 01:53:05;;;;;;;49.33;25.25;;;;;;;-4.46;100.00;93013.94;2572949;23;20078;-88
2023/03/03 01:54:15;;;;;;;48.80;25.10;;;;;;;-4.52;100.00;93017.81;2559847;23;20092;-87
2023/03/03 01:55:24;;;;;;;55.10;27.05;;;;;;;-4.34;100.00;93014.72;2574112;22;20001;-85
2023/03/03 01:56:27;;;;;;;52.90;26.05;;;;;;;-4.41;100.00;93011.13;2572199;23;20011;-85
2023/03/03 01:57:34;;;;;;;56.97;27.35;;;;;;;-4.46;100.00;93008.72;2571294;22;20043;-86
2023/03/03 01:58:43;;;;;;;54.53;26.17;;;;;;;-4.47;100.00;93005.38;2571823;23;20000;-87
2023/03/03 01:59:48;;;;;;;59.00;28.23;;;;;;;-4.57;100.00;93005.75;2561000;23;20075;-86
2023/03/03 02:00:54;;;;;;;51.30;26.27;;;;;;;-4.53;100.00;93013.72;2572347;22;20507;-86
2023/03/03 02:01:55;;;;;;;56.55;26.17;;;;;;;-4.49;100.00;93004.91;2571172;23;20008;-86
2023/03/03 02:02:57;;;;;;;56.67;27.38;;;;;;;-4.54;100.00;93009.59;2558541;23;20337;-87
2023/03/03 02:03:59;;;;;;;54.50;27.20;;;;;;;-4.56;100.00;93010.66;2558339;23;20012;-85
2023/03/03 02:05:02;;;;;;;52.95;26.65;;;;;;;-4.58;100.00;93009.47;2559538;23;20005;-85
2023/03/03 02:06:12;;;;;;;53.53;26.75;;;;;;;-4.43;100.00;93008.09;2558853;23;20080;-85
2023/03/03 02:07:14;;;;;;;51.22;26.33;;;;;;;-4.49;100.00;93006.75;2549331;23;20035;-86
2023/03/03 02:08:22;;;;;;;49.70;25.52;;;;;;;-4.48;100.00;93003.81;2547874;23;20010;-87
2023/03/03 02:09:39;;;;;;;53.20;26.48;;;;;;;-4.49;100.00;92998.94;2560993;23;20008;-88
2023/03/03 02:10:42;;;;;;;54.53;25.15;;;;;;;-4.62;100.00;92995.53;2564453;23;20009;-86
2023/03/03 02:11:46;;;;;;;55.20;25.80;;;;;;;-4.59;100.00;93000.13;2558871;23;20012;-86
2023/03/03 02:12:53;;;;;;;49.13;26.50;;;;;;;-4.53;100.00;92995.44;2570969;23;20011;-84
2023/03/03 02:13:54;;;;;;;54.20;26.27;;;;;;;-4.67;100.00;92998.34;2560316;23;20012;-85
2023/03/03 02:14:55;;;;;;;51.50;26.50;;;;;;;-4.68;100.00;92996.84;2570455;23;20332;-85
2023/03/03 02:15:59;;;;;;;50.67;26.70;;;;;;;-4.63;100.00;92994.78;2571399;22;20007;-89
2023/03/03 02:17:06;;;;;;;54.22;27.48;;;;;;;-4.73;100.00;92994.44;2583232;22;20589;-88
2023/03/03 02:19:57;;;;;;;53.55;24.65;;;;;;;-4.72;100.00;92996.72;2145011;27;20593;-76
2023/03/03 02:21:10;;;;;;;51.72;25.05;;;;;;;-4.77;100.00;92988.34;2116202;28;20146;-76
2023/03/03 02:22:17;;;;;;;52.50;25.40;;;;;;;-4.68;100.00;92989.03;2105687;28;20028;-73
2023/03/03 02:23:32;;;;;;;53.50;25.98;;;;;;;-4.68;100.00;92994.25;2117796;27;20040;-74
2023/03/03 02:25:03;;;;;;;54.25;25.17;;;;;;;-4.83;100.00;92985.16;2121081;27;20389;-74
2023/03/03 02:26:21;;;;;;;50.78;25.38;;;;;;;-4.79;100.00;92987.91;2122638;27;20062;-74
2023/03/03 02:27:31;;;;;;;55.25;25.67;;;;;;;-4.76;100.00;92990.63;2109276;28;20048;-73
2023/03/03 02:28:56;;;;;;;;;;;;;;;;;;;;;
2023/03/03 02:30:23;;;;;;;53.10;24.38;;;;;;;-4.82;100.00;92987.47;2123288;27;20035;-74
2023/03/03 02:31:29;;;;;;;54.28;25.60;;;;;;;-4.80;100.00;92992.34;2118913;28;20042;-74
2023/03/03 02:32:34;;;;;;;51.28;26.35;;;;;;;-4.76;100.00;92988.03;2103731;28;20501;-72
2023/03/03 02:33:40;;;;;;;49.45;25.65;;;;;;;-4.85;100.00;92989.97;2110881;28;20600;-73
2023/03/03 02:35:04;;;;;;;49.63;25.10;;;;;;;-4.75;100.00;92989.53;2103961;28;20044;-73
2023/03/03 02:36:28;;;;;;;51.65;25.42;;;;;;;-4.83;100.00;92985.97;2119405;27;20130;-73
2023/03/03 02:40:04;;;;;;;43.85;23.38;;;;;;;-4.96;100.00;92973.19;2119631;27;20031;-72
2023/03/03 02:48:55;;;;;;;47.10;22.00;;;;;;;-4.94;100.00;92971.78;2133988;27;20070;-72
2023/03/03 02:55:43;;;;;;;48.92;22.35;;;;;;;-4.91;100.00;92965.19;2092310;28;21226;-73
2023/03/03 02:57:43;;;;;;;42.13;21.77;;;;;;;-4.94;100.00;92969.19;2088816;28;20498;-73
2023/03/03 02:59:23;;;;;;;46.63;22.08;;;;;;;-4.86;100.00;92972.81;2083491;28;20063;-73
2023/03/03 03:01:02;;;;;;;51.03;24.20;;;;;;;-4.90;100.00;92970.06;2072208;28;20037;-73
2023/03/03 03:02:18;;;;;;;52.45;23.73;;;;;;;-4.91;100.00;92971.16;2116770;28;20061;-73
2023/03/03 03:03:30;;;;;;;49.95;25.40;;;;;;;-4.94;100.00;92968.44;2108313;28;20078;-74
2023/03/03 03:04:44;;;;;;;49.42;25.02;;;;;;;-5.04;100.00;92972.22;2129446;27;20054;-73
2023/03/03 03:05:56;;;;;;;51.75;25.13;;;;;;;-5.01;100.00;92968.94;2122980;27;20038;-74
2023/03/03 03:07:23;;;;;;;46.35;23.88;;;;;;;-4.97;100.00;92969.81;2124377;27;20114;-73
2023/03/03 03:08:33;;;;;;;;;;;;;;;-4.98;100.00;92970.16;2119699;28;20042;-76
2023/03/03 03:09:55;;;;;;;46.58;22.73;;;;;;;-4.96;100.00;92967.97;2120047;27;19926;-74
2023/03/03 03:11:04;;;;;;;49.05;23.58;;;;;;;-4.96;100.00;92973.97;2108516;28;20044;-73
2023/03/03 03:12:25;;;;;;;51.58;25.45;;;;;;;-4.96;100.00;92971.38;2107426;28;20047;-73
2023/03/03 03:13:37;;;;;;;46.17;24.67;;;;;;;-4.96;100.00;92973.19;2102670;28;20036;-74
2023/03/03 03:15:08;;;;;;;47.72;23.98;;;;;;;-5.01;100.00;92962.97;2115530;27;20039;-74
2023/03/03 03:16:30;;;;;;;45.33;24.15;;;;;;;-4.96;100.00;92973.97;2104519;28;20064;-73
2023/03/03 03:17:55;;;;;;;49.67;24.63;;;;;;;-5.03;100.00;92965.16;2116852;27;20035;-74
2023/03/03 03:19:15;;;;;;;47.90;24.48;;;;;;;-5.10;100.00;92955.25;2119075;27;20443;-73
2023/03/03 03:20:33;;;;;;;51.45;23.30;;;;;;;-5.00;100.00;92975.69;2109495;28;20317;-73
2023/03/03 03:22:05;;;;;;;44.92;22.73;;;;;;;-4.97;100.00;92969.06;2119550;27;20166;-73
2023/03/03 03:23:22;;;;;;;46.42;23.50;;;;;;;-5.00;100.00;92965.28;2114629;28;20036;-73
2023/03/03 03:24:43;;;;;;;46.53;24.70;;;;;;;-5.03;100.00;92975.56;2112304;28;20066;-73
2023/03/03 03:25:53;;;;;;;52.45;24.65;;;;;;;-5.08;100.00;92972.09;2111248;28;20063;-74
2023/03/03 03:26:59;;;;;;;49.30;24.95;;;;;;;-5.18;100.00;92976.91;2113875;27;20092;-74
2023/03/03 03:28:03;;;;;;;46.90;24.05;;;;;;;-5.12;100.00;92978.25;2117120;28;20056;-73
2023/03/03 03:29:06;;;;;;;47.88;25.00;;;;;;;-5.11;100.00;92980.53;2102299;28;20036;-75
2023/03/03 03:30:08;;;;;;;52.17;25.35;;;;;;;-5.08;100.00;92974.69;2099581;28;20029;-73
2023/03/03 03:31:11;;;;;;;49.20;25.02;;;;;;;-5.09;100.00;92975.78;2096383;28;20021;-73
2023/03/03 03:32:14;;;;;;;43.25;23.23;;;;;;;-5.07;100.00;92985.88;2099925;28;20028;-72
2023/03/03 03:33:16;;;;;;;49.00;25.20;;;;;;;-5.08;100.00;92986.97;2097164;28;20120;-74
2023/03/03 03:35:29;;;;;;;50.22;25.45;;;;;;;-5.05;100.00;92983.69;2092338;28;20922;-73
2023/03/03 03:37:33;;;;;;;46.50;23.25;;;;;;;-4.98;100.00;92983.19;2069652;28;20045;-73
2023/03/03 03:40:14;;;;;;;;;;;;;;;;;;;;;
2023/03/03 03:42:48;;;;;;;;;;;;;;;;;;;;;
2023/03/03 03:45:19;;;;;;;;;;;;;;;;;;;;;
2023/03/03 03:48:00;;;;;;;42.63;20.23;;;;;;;-4.97;100.00;92984.69;2046966;28;20425;-75
2023/03/03 03:57:53;;;;;;;;;;;;;;;;;;;;;
2023/03/03 04:04:47;;;;;;;48.78;20.92;;;;;;;-5.02;100.00;92997.94;2030185;29;20043;-75
2023/03/03 04:09:04;;;;;;;46.65;22.38;;;;;;;-5.07;100.00;93004.88;2030969;29;20059;-73
2023/03/03 04:16:11;;;;;;;44.50;21.90;;;;;;;-4.90;100.00;92996.13;2026136;29;20108;-73
2023/03/03 04:17:23;;;;;;;48.42;22.42;;;;;;;-4.75;100.00;92996.59;2018053;29;20409;-76
2023/03/03 04:18:24;;;;;;;47.17;23.83;;;;;;;-4.65;100.00;92991.75;2037844;28;20064;-72
2023/03/03 04:19:26;;;;;;;47.50;23.35;;;;;;;-4.66;100.00;92994.66;2070652;28;20133;-72
2023/03/03 04:20:28;;;;;;;48.17;25.42;;;;;;;-4.65;100.00;93002.19;2070924;28;20041;-72
2023/03/03 04:21:29;;;;;;;50.47;25.17;;;;;;;-4.60;100.00;92999.38;2088995;28;20193;-73
2023/03/03 04:22:32;;;;;;;50.95;25.25;;;;;;;-4.57;100.00;92996.09;2112887;28;20016;-72
2023/03/03 04:23:33;;;;;;;47.20;24.55;;;;;;;-4.52;100.00;92989.16;2104857;28;20498;-73
2023/03/03 04:24:35;;;;;;;56.78;26.02;;;;;;;-4.54;100.00;92997.31;2087937;28;20035;-73
2023/03/03 04:25:37;;;;;;;51.42;25.98;;;;;;;-4.48;100.00;92997.84;2088338;28;20025;-73
2023/03/03 04:26:38;;;;;;;53.97;27.02;;;;;;;-4.51;100.00;92996.66;2105436;28;20031;-74
2023/03/03 04:27:39;;;;;;;53.08;27.40;;;;;;;-4.49;100.00;92986.66;2096575;28;20024;-73
2023/03/03 04:28:40;;;;;;;51.60;26.55;;;;;;;-4.41;100.00;92995.47;2096747;28;20451;-72
2023/03/03 04:29:41;;;;;;;46.50;24.95;;;;;;;-4.45;100.00;92989.38;2112983;28;20031;-74
2023/03/03 04:30:43;;;;;;;53.83;28.25;;;;;;;-4.44;100.00;92991.66;2121273;27;20055;-72
2023/03/03 04:31:44;;;;;;;50.92;25.70;;;;;;;-4.34;100.00;92996.47;2120468;27;20520;-75
2023/03/03 04:32:46;;;;;;;54.75;27.27;;;;;;;-4.34;100.00;92993.09;2110741;28;20031;-72
2023/03/03 04:33:48;;;;;;;50.47;26.90;;;;;;;-4.34;100.00;92998.31;2112884;28;20124;-73
2023/03/03 04:34:49;;;;;;;53.22;28.08;;;;;;;-4.40;100.00;92995.13;2111788;28;20427;-72
2023/03/03 04:36:06;;;;;;;54.85;26.77;;;;;;;-4.36;100.00;93000.47;2113134;28;20032;-74
2023/03/03 04:37:32;;;;;;;53.42;26.60;;;;;;;-4.39;100.00;92995.91;2098993;28;20024;-74
2023/03/03 04:38:48;;;;;;;51.70;26.08;;;;;;;-4.40;100.00;92997.00;2096397;28;20300;-76
2023/03/03 04:40:10;;;;;;;52.03;27.17;;;;;;;-4.32;100.00;92994.28;2090875;28;20477;-75
2023/03/03 04:42:07;;;;;;;;;;;;;;;;;;;;;
2023/03/03 04:43:19;;;;;;;52.10;24.75;;;;;;;-4.26;100.00;92999.28;2101263;28;20036;-72
2023/03/03 04:44:45;;;;;;;46.97;24.30;;;;;;;-4.35;100.00;93000.13;2106488;28;20031;-74
2023/03/03 04:45:59;;;;;;;47.60;24.58;;;;;;;-4.27;100.00;93011.56;2105305;28;20028;-73
2023/03/03 04:47:14;;;;;;;49.25;25.48;;;;;;;-4.18;100.00;93001.03;2104925;28;20067;-74
2023/03/03 04:48:42;;;;;;;52.92;25.80;;;;;;;-4.15;100.00;93005.59;2110413;28;20046;-74
2023/03/03 04:49:44;;;;;;;49.67;25.02;;;;;;;-4.13;100.00;93009.41;2112946;28;20042;-73
2023/03/03 04:50:47;;;;;;;51.53;27.10;;;;;;;-4.08;100.00;93006.59;2095642;28;20114;-77
2023/03/03 04:52:02;;;;;;;50.95;25.13;;;;;;;-4.06;100.00;93007.00;2090355;28;20040;-75
2023/03/03 04:53:06;;;;;;;49.25;25.75;;;;;;;-3.95;100.00;93007.34;2090045;28;20051;-75
2023/03/03 04:54:11;;;;;;;48.10;25.83;;;;;;;-3.99;100.00;93005.72;2080689;28;20029;-74
2023/03/03 04:55:29;;;;;;;49.38;25.08;;;;;;;-3.96;100.00;93005.81;2095813;28;20063;-73
2023/03/03 04:56:45;;;;;;;54.30;25.88;;;;;;;-3.91;100.00;93008.19;2100405;28;20081;-74
2023/03/03 04:57:49;;;;;;;51.22;25.85;;;;;;;-3.95;100.00;93004.75;2106991;28;20036;-74
2023/03/03 04:58:51;;;;;;;49.63;26.40;;;;;;;-3.87;100.00;93003.84;2096159;28;20551;-74
2023/03/03 04:59:52;;;;;;;53.78;26.77;;;;;;;-3.91;100.00;92992.53;2096239;28;20038;-75
2023/03/03 05:00:55;;;;;;;52.45;27.23;;;;;;;-3.87;100.00;92996.00;2087851;28;20043;-72
2023/03/03 05:01:56;;;;;;;53.88;27.83;;;;;;;-3.82;100.00;92995.81;2104050;28;20039;-73
2023/03/03 05:02:58;;;;;;;54.83;27.67;;;;;;;-3.81;100.00;93001.78;2113649;28;20373;-74
2023/03/03 05:03:59;;;;;;;56.05;27.98;;;;;;;-3.77;100.00;93002.66;2113630;28;20039;-74
2023/03/03 05:05:00;;;;;;;52.95;27.98;;;;;;;-3.72;100.00;92999.06;2113934;28;20023;-72
2023/03/03 05:06:01;;;;;;;54.92;27.83;;;;;;;-3.68;100.00;92995.47;2104792;28;20056;-73
2023/03/03 05:07:03;;;;;;;58.95;28.55;;;;;;;-3.68;100.00;93000.69;2104433;28;20528;-73
2023/03/03 05:08:05;;;;;;;56.63;27.98;;;;;;;-3.63;100.00;92999.69;2113307;28;20055;-76
2023/03/03 05:09:07;;;;;;;53.55;27.77;;;;;;;-3.69;100.00;93001.00;2113479;27;20039;-73
2023/03/03 05:10:09;;;;;;;52.75;27.98;;;;;;;-3.68;100.00;93003.31;2121324;27;20122;-73
2023/03/03 05:11:10;;;;;;;59.25;28.25;;;;;;;-3.65;100.00;92994.78;2109471;28;20093;-73
2023/03/03 05:12:12;;;;;;;53.63;28.67;;;;;;;-3.60;100.00;92996.41;2118519;27;20035;-75
2023/03/03 05:13:15;;;;;;;54.40;28.70;;;;;;;-3.58;100.00;92997.63;2120191;27;20106;-72
2023/03/03 05:14:18;;;;;;;55.22;29.42;;;;;;;-3.51;100.00;92991.06;2112803;28;20054;-72
2023/03/03 05:15:19;;;;;;;53.28;27.98;;;;;;;-3.56;100.00;92990.22;2109309;28;20028;-73
2023/03/03 05:16:21;;;;;;;59.13;29.38;;;;;;;-3.57;100.00;93004.34;2108973;28;20028;-73
2023/03/03 05:17:22;;;;;;;55.58;29.88;;;;;;;-3.49;100.00;92997.50;2112866;28;20036;-73
2023/03/03 05:18:25;;;;;;;58.05;27.95;;;;;;;-3.45;100.00;92993.13;2104025;28;20418;-73
2023/03/03 05:19:30;;;;;;;55.97;28.88;;;;;;;-3.39;100.00;92993.66;2112527;28;20082;-75
2023/03/03 05:20:34;;;;;;;55.90;29.42;;;;;;;-3.37;100.00;93001.94;2108417;28;20508;-74
2023/03/03 05:21:41;;;;;;;58.15;29.85;;;;;;;-3.35;100.00;93008.34;2096465;28;20028;-72
2023/03/03 05:22:43;;;;;;;61.83;29.88;;;;;;;-3.29;100.00;92998.44;2102886;28;20642;-74
2023/03/03 05:23:45;;;;;;;62.28;29.70;;;;;;;-3.28;100.00;92997.34;2116725;27;20031;-74
2023/03/03 05:24:48;;;;;;;60.65;29.75;;;;;;;-3.29;100.00;93003.66;2116938;27;20031;-74
2023/03/03 05:25:53;;;;;;;58.60;28.73;;;;;;;-3.24;100.00;92998.19;2117970;27;20050;-73
2023/03/03 05:26:54;;;;;;;61.58;28.27;;;;;;;-3.28;100.00;93013.03;2119282;27;20035;-75
2023/03/03 05:27:56;;;;;;;57.10;28.40;;;;;;;-3.24;100.00;93003.44;2117937;27;20031;-72
2023/03/03 05:28:57;;;;;;;66.93;31.50;;;;;;;-3.22;100.00;93006.47;2118004;27;20701;-73
2023/03/03 05:29:58;;;;;;;54.92;28.13;;;;;;;-3.19;100.00;93005.03;2109962;28;20598;-75
2023/03/03 05:31:00;;;;;;;55.90;28.75;;;;;;;-3.17;100.00;93002.84;2110209;27;20050;-74
2023/03/03 05:32:01;;;;;;;61.30;29.80;;;;;;;-3.22;100.00;93008.31;2117866;27;20027;-72
2023/03/03 05:33:03;;;;;;;56.05;28.67;;;;;;;-3.10;100.00;93006.41;2109770;28;20040;-71
2023/03/03 05:34:06;;;;;;;54.42;28.33;;;;;;;-3.05;100.00;93006.19;2118616;27;20035;-74
2023/03/03 05:35:07;;;;;;;61.25;29.98;;;;;;;-3.02;100.00;93010.00;2119113;27;20023;-72
2023/03/03 05:36:08;;;;;;;58.63;30.02;;;;;;;-3.00;100.00;93012.28;2116296;27;20034;-73
2023/03/03 05:37:09;;;;;;;55.60;27.85;;;;;;;-3.01;100.00;93006.28;2108964;28;20032;-73
2023/03/03 05:38:11;;;;;;;68.05;29.90;;;;;;;-3.00;100.00;93007.78;2118772;27;20106;-73
2023/03/03 05:39:12;;;;;;;55.58;29.10;;;;;;;-2.98;100.00;93007.47;2118507;27;20038;-74
2023/03/03 05:40:13;;;;;;;59.17;30.15;;;;;;;-3.03;100.00;93011.06;2118402;27;20023;-75
2023/03/03 05:41:14;;;;;;;56.05;28.83;;;;;;;-3.05;100.00;93003.56;2119174;27;20084;-73
2023/03/03 05:42:15;;;;;;;62.63;30.27;;;;;;;-2.98;100.00;93007.47;2118946;27;20076;-71
2023/03/03 05:43:17;;;;;;;60.15;29.80;;;;;;;-2.99;100.00;93004.09;2119442;27;20088;-73
2023/03/03 05:44:18;;;;;;;58.08;29.60;;;;;;;-2.97;100.00;92998.53;2117154;27;20091;-72
2023/03/03 05:45:20;;;;;;;58.72;29.33;;;;;;;-2.94;100.00;93009.09;2118637;27;20055;-75
2023/03/03 05:46:21;;;;;;;59.20;29.52;;;;;;;-2.92;100.00;93012.13;2118885;27;20053;-75
2023/03/03 05:47:22;;;;;;;60.53;30.02;;;;;;;-2.96;100.00;93006.03;2118478;27;20035;-72
2023/03/03 05:48:23;;;;;;;58.13;30.45;;;;;;;-2.90;100.00;93011.78;2117829;27;20027;-72
2023/03/03 05:49:25;;;;;;;61.55;30.40;;;;;;;-2.88;100.00;93020.81;2117987;27;20035;-75
2023/03/03 05:50:38;;;;;;;64.50;30.88;;;;;;;-2.95;100.00;93023.25;2109787;28;20023;-75
2023/03/03 05:51:42;;;;;;;60.97;30.08;;;;;;;-2.89;100.00;93018.56;2096627;28;20714;-72
2023/03/03 05:52:52;;;;;;;61.05;30.55;;;;;;;-2.96;100.00;93021.72;2100059;28;20032;-72
2023/03/03 05:53:53;;;;;;;;;;;;;;;-2.90;100.00;93025.63;2102819;28;20100;-73
2023/03/03 05:54:56;;;;;;;63.00;28.83;;;;;;;-2.95;100.00;93019.88;2092690;28;19943;-73
2023/03/03 05:55:57;;;;;;;62.63;30.20;;;;;;;-2.90;100.00;93022.25;2093683;28;20035;-75
2023/03/03 05:56:58;;;;;;;59.38;30.23;;;;;;;-2.84;100.00;93026.16;2109768;28;20070;-74
2023/03/03 05:57:59;;;;;;;65.50;30.60;;;;;;;-2.87;100.00;93019.72;2101772;28;20036;-74
2023/03/03 05:59:01;;;;;;;66.88;33.13;;;;;;;-2.82;100.00;93018.72;2093099;28;20653;-73
2023/03/03 06:00:04;;;;;;;68.82;32.28;;;;;;;-2.79;100.00;93024.06;2093346;28;20131;-73